This is the latest recevied weather packets stored in our database for station/object NI4CE-10. If no packets are shown the sender has not sent any weather packets the latest 10 day(s).
| Time | Temp. | Humidity | Pressure | Rain* | Wind** | Luminosity | Snow |
|---|---|---|---|---|---|---|---|
| 1777918853 | 28.33° C | 100% | 1017.7 hPa | 0 mm | - | - | - |
| 1777918553 | 28.33° C | 100% | 1017.7 hPa | 0 mm | - | - | - |
| 1777918502 | 28.89° C | 100% | 1017.7 hPa | 0 mm | - | - | - |
| 1777918253 | 28.89° C | 100% | 1017.7 hPa | 0 mm | - | - | - |
| 1777917953 | 29.44° C | 100% | 1017.7 hPa | 0 mm | - | - | - |
| 1777917941 | 28.89° C | 100% | 1017.8 hPa | 0 mm | - | - | - |
| 1777917653 | 28.89° C | 100% | 1017.8 hPa | 0 mm | - | - | - |
| 1777917495 | 28.89° C | 100% | 1017.9 hPa | 0 mm | - | - | - |
| 1777917353 | 28.89° C | 100% | 1017.9 hPa | 0 mm | - | - | - |
| 1777917081 | 27.22° C | 100% | 1018.2 hPa | 0 mm | - | - | - |
| 1777917053 | 28.33° C | 100% | 1017.9 hPa | 0 mm | - | - | - |
| 1777917000 | 28.33° C | 100% | 1018 hPa | 0 mm | - | - | - |
| 1777916753 | 28.33° C | 100% | 1018 hPa | 0 mm | - | - | - |
| 1777916453 | 28.33° C | 100% | 1018.1 hPa | 0 mm | - | - | - |
| 1777916297 | 28.33° C | 100% | 1018.1 hPa | 0 mm | - | - | - |
| 1777916153 | 28.33° C | 100% | 1018.1 hPa | 0 mm | - | - | - |
| 1777916087 | 27.22° C | 100% | 1018.2 hPa | 0 mm | - | - | - |
| 1777915853 | 27.22° C | 100% | 1018.2 hPa | 0 mm | - | - | - |
| 1777915553 | 28.33° C | 100% | 1018.1 hPa | 0 mm | - | - | - |
| 1777915253 | 28.33° C | 100% | 1018.3 hPa | 0 mm | - | - | - |
| 1777914953 | 28.89° C | 100% | 1018.4 hPa | 0 mm | - | - | - |
| 1777914659 | 27.78° C | 100% | 1018.5 hPa | 0 mm | - | - | - |
| 1777914653 | 28.89° C | 100% | 1018.3 hPa | 0 mm | - | - | - |
| 1777914616 | 28.33° C | 100% | 1018.4 hPa | 0 mm | - | - | - |
| 1777914483 | 27.78° C | 100% | 1018.5 hPa | 0 mm | - | - | - |
* Rain latest hour (hover to see other rain measurements)
** Current wind speed in m/s (hover to see current wind gust speed)